Torrelodones, Spain
Current Conditions -  °F | °C
As of 6:00 PM on Thursday 23 Oct 2014 (Local Time) from LECV Reporting Station
Few Clouds Few Clouds  
Wind Chill: 70°   Ceiling: Unl
Heat Index: 70°   Visibility: 6mi
Dew Point: 39°   Wind: 14mph
Humidity: 33%   Direction: 30°NNE
Pressure: 30.24"   Gusts: NA
Location:  40.58°N, 3.93°W
Report Text: LECV 231600Z 03012KT 9999 FEW070 21/04 Q1024
Loading
Personal Weather Stations






























Interactive Weather Map
Tropical Storm Tracking
New forecast layout! Learn more

10-Day Weather Forecast

Advertisements
Track Severe Weather on mobile